createdAt,value
2017-07-31T00:00:00.276Z,1013.5
2017-07-31T00:00:59.990Z,1013.5
2017-07-31T00:01:59.083Z,1013.5
2017-07-31T00:02:58.929Z,1013.6
2017-07-31T00:03:58.127Z,1013.6
2017-07-31T00:04:57.335Z,1013.5
2017-07-31T00:05:56.912Z,1013.5
2017-07-31T00:06:56.495Z,1013.5
2017-07-31T00:07:55.703Z,1013.5
2017-07-31T00:08:54.900Z,1013.5
2017-07-31T00:09:54.605Z,1013.5
2017-07-31T00:10:53.810Z,1013.5
2017-07-31T00:11:24.201Z,1013.5
2017-07-31T00:11:54.735Z,1013.5
2017-07-31T00:12:52.699Z,1013.6
2017-07-31T00:13:51.906Z,1013.5
2017-07-31T00:14:51.619Z,1013.6
2017-07-31T00:15:50.851Z,1013.5
2017-07-31T00:16:50.319Z,1013.6
2017-07-31T00:17:49.544Z,1013.6
2017-07-31T00:18:49.247Z,1013.6
2017-07-31T00:19:48.452Z,1013.6
2017-07-31T00:20:48.091Z,1013.5
2017-07-31T00:21:47.284Z,1013.5
2017-07-31T00:22:17.812Z,1013.5
2017-07-31T00:22:48.472Z,1013.6
2017-07-31T00:23:18.982Z,1013.6
2017-07-31T00:24:45.634Z,1013.6
2017-07-31T00:25:44.871Z,1013.6
2017-07-31T00:26:44.452Z,1013.5
2017-07-31T00:27:43.658Z,1013.5
2017-07-31T00:28:43.258Z,1013.5
2017-07-31T00:29:42.453Z,1013.5
2017-07-31T00:30:41.656Z,1013.4
2017-07-31T00:31:41.144Z,1013.5
2017-07-31T00:32:40.624Z,1013.4
2017-07-31T00:34:39.379Z,1013.5
2017-07-31T00:35:38.973Z,1013.5
2017-07-31T00:36:38.176Z,1013.5
2017-07-31T00:37:37.390Z,1013.5
2017-07-31T00:38:37.093Z,1013.6
2017-07-31T00:39:36.182Z,1013.5
2017-07-31T00:40:35.771Z,1013.5
2017-07-31T00:41:35.237Z,1013.6
2017-07-31T00:42:34.447Z,1013.6
2017-07-31T00:43:34.028Z,1013.6
2017-07-31T00:44:33.238Z,1013.6
2017-07-31T00:45:32.832Z,1013.6
2017-07-31T00:46:32.038Z,1013.6
2017-07-31T00:47:31.236Z,1013.6
2017-07-31T00:48:30.950Z,1013.6
2017-07-31T00:49:30.146Z,1013.6
2017-07-31T00:50:29.349Z,1013.6
2017-07-31T00:51:28.923Z,1013.7
2017-07-31T00:52:28.513Z,1013.7
2017-07-31T00:53:27.713Z,1013.7
2017-07-31T00:54:27.301Z,1013.7
2017-07-31T00:55:26.508Z,1013.7
2017-07-31T00:56:25.609Z,1013.7
2017-07-31T00:57:25.306Z,1013.7
2017-07-31T00:58:24.494Z,1013.8
2017-07-31T00:59:24.215Z,1013.8
2017-07-31T01:00:23.316Z,1013.8
2017-07-31T01:01:22.515Z,1013.9
2017-07-31T01:02:22.101Z,1013.9
2017-07-31T01:03:21.308Z,1013.9
2017-07-31T01:04:21.013Z,1013.9
2017-07-31T01:05:20.203Z,1013.9
2017-07-31T01:06:19.905Z,1014.1
2017-07-31T01:07:18.989Z,1014.1
2017-07-31T01:08:18.190Z,1014.2
2017-07-31T01:10:17.280Z,1014.1
2017-07-31T01:11:16.479Z,1014.2
2017-07-31T01:12:16.176Z,1014.2
2017-07-31T01:13:15.387Z,1014.2
2017-07-31T01:14:14.970Z,1014.3
2017-07-31T01:15:14.175Z,1014.2
2017-07-31T01:16:13.384Z,1014.3
2017-07-31T01:17:13.090Z,1014.2
2017-07-31T01:18:12.178Z,1014.1
2017-07-31T01:19:11.897Z,1014.1
2017-07-31T01:19:42.171Z,1014.1
2017-07-31T01:20:12.674Z,1014
2017-07-31T01:20:43.057Z,1014
2017-07-31T01:22:09.954Z,1014.1
2017-07-31T01:23:09.159Z,1014.1
2017-07-31T01:24:08.353Z,1014.1
2017-07-31T01:25:08.063Z,1014.1
2017-07-31T01:26:07.537Z,1014
2017-07-31T01:27:06.740Z,1014
2017-07-31T01:28:06.338Z,1014
2017-07-31T01:29:05.447Z,1014
2017-07-31T01:30:04.794Z,1014
2017-07-31T01:30:35.086Z,1014
2017-07-31T01:31:05.485Z,1014
2017-07-31T01:31:35.999Z,1014
2017-07-31T01:32:06.402Z,1014
2017-07-31T01:32:36.915Z,1014
2017-07-31T01:34:02.161Z,1014.1
2017-07-31T01:35:01.752Z,1014
2017-07-31T01:36:01.347Z,1014.1
2017-07-31T01:37:00.542Z,1014.1
2017-07-31T01:38:00.013Z,1014
2017-07-31T01:38:59.096Z,1014
2017-07-31T01:39:58.963Z,1014
2017-07-31T01:40:58.172Z,1014
2017-07-31T01:41:57.456Z,1014
2017-07-31T01:42:57.051Z,1013.9
2017-07-31T01:43:56.243Z,1014
2017-07-31T01:44:55.824Z,1014
2017-07-31T01:45:55.019Z,1013.9
2017-07-31T01:46:54.220Z,1013.9
2017-07-31T01:47:53.927Z,1013.9
2017-07-31T01:48:53.123Z,1013.9
2017-07-31T01:49:23.538Z,1013.9
2017-07-31T01:49:54.071Z,1013.9
2017-07-31T01:50:24.354Z,1013.9
2017-07-31T01:51:51.245Z,1013.9
2017-07-31T01:52:50.953Z,1013.9
2017-07-31T01:53:50.161Z,1013.9
2017-07-31T01:54:49.261Z,1014
2017-07-31T01:55:48.962Z,1014
2017-07-31T01:56:48.168Z,1014
2017-07-31T01:57:47.874Z,1014
2017-07-31T01:58:46.961Z,1014
2017-07-31T01:59:46.550Z,1014
2017-07-31T02:00:45.754Z,1014
2017-07-31T02:01:44.955Z,1014
2017-07-31T02:02:44.537Z,1014.1
2017-07-31T02:03:43.725Z,1014.1
2017-07-31T02:05:42.712Z,1014.2
2017-07-31T02:06:41.934Z,1014.2
2017-07-31T02:07:41.409Z,1014.2
2017-07-31T02:08:40.993Z,1014.3
2017-07-31T02:09:40.196Z,1014.3
2017-07-31T02:10:39.780Z,1014.3
2017-07-31T02:11:38.985Z,1014.3
2017-07-31T02:12:09.503Z,1014.3
2017-07-31T02:12:40.012Z,1014.2
2017-07-31T02:13:10.534Z,1014.2
2017-07-31T02:13:41.059Z,1014.2
2017-07-31T02:14:11.439Z,1014.2
2017-07-31T02:15:36.314Z,1014.3
2017-07-31T02:17:35.289Z,1014.4
2017-07-31T02:18:34.754Z,1014.4
2017-07-31T02:19:33.985Z,1014.4
2017-07-31T02:20:33.569Z,1014.5
2017-07-31T02:21:32.769Z,1014.5
2017-07-31T02:22:31.966Z,1014.5
2017-07-31T02:23:31.670Z,1014.6
2017-07-31T02:24:30.751Z,1014.6
2017-07-31T02:25:30.470Z,1014.5
2017-07-31T02:26:29.689Z,1014.6
2017-07-31T02:27:28.885Z,1014.6
2017-07-31T02:28:28.468Z,1014.6
2017-07-31T02:29:28.062Z,1014.6
2017-07-31T02:30:27.049Z,1014.7
2017-07-31T02:31:26.748Z,1014.8
2017-07-31T02:32:25.839Z,1014.8
2017-07-31T02:33:25.429Z,1014.7
2017-07-31T02:34:24.520Z,1014.7
2017-07-31T02:35:24.098Z,1014.6
2017-07-31T02:36:23.681Z,1014.6
2017-07-31T02:37:22.899Z,1014.6
2017-07-31T02:38:22.103Z,1014.6
2017-07-31T02:39:21.789Z,1014.6
2017-07-31T02:40:20.982Z,1014.6
2017-07-31T02:41:20.176Z,1014.7
2017-07-31T02:42:19.875Z,1014.6
2017-07-31T02:43:18.944Z,1014.6
2017-07-31T02:45:17.673Z,1014.7
2017-07-31T02:46:17.374Z,1014.8
2017-07-31T02:47:16.573Z,1014.8
2017-07-31T02:48:16.144Z,1014.8
2017-07-31T02:49:15.221Z,1014.8
2017-07-31T02:50:14.918Z,1014.8
2017-07-31T02:51:13.989Z,1014.8
2017-07-31T02:52:13.566Z,1014.8
2017-07-31T02:53:12.775Z,1014.8
2017-07-31T02:54:12.355Z,1014.9
2017-07-31T02:55:11.935Z,1014.9
2017-07-31T02:56:11.012Z,1015
2017-07-31T02:57:10.588Z,1015
2017-07-31T02:58:09.652Z,1015
2017-07-31T02:59:09.351Z,1015
2017-07-31T02:59:39.740Z,1015
2017-07-31T03:00:10.249Z,1015
2017-07-31T03:00:40.629Z,1015
2017-07-31T03:01:11.138Z,1015
2017-07-31T03:01:41.634Z,1015
2017-07-31T03:02:12.038Z,1015.1
2017-07-31T03:03:06.590Z,1015.1
2017-07-31T03:04:06.181Z,1015
2017-07-31T03:05:05.763Z,1015
2017-07-31T03:06:05.063Z,1014.9
2017-07-31T03:08:03.516Z,1014.9
2017-07-31T03:09:03.095Z,1014.9
2017-07-31T03:10:02.286Z,1014.9
2017-07-31T03:11:02.014Z,1015
2017-07-31T03:12:01.081Z,1014.9
2017-07-31T03:13:00.650Z,1015
2017-07-31T03:13:59.854Z,1014.9
2017-07-31T03:14:59.441Z,1014.9
2017-07-31T03:15:58.514Z,1014.9
2017-07-31T03:16:58.205Z,1014.9
2017-07-31T03:17:57.410Z,1014.9
2017-07-31T03:18:57.105Z,1014.9
2017-07-31T03:19:56.299Z,1014.9
2017-07-31T03:20:55.505Z,1014.9
2017-07-31T03:21:26.029Z,1014.9
2017-07-31T03:21:56.545Z,1014.9
2017-07-31T03:22:27.060Z,1014.9
2017-07-31T03:23:53.693Z,1015
2017-07-31T03:24:53.029Z,1015
2017-07-31T03:25:52.365Z,1015
2017-07-31T03:26:51.949Z,1014.9
2017-07-31T03:27:51.166Z,1014.8
2017-07-31T03:28:50.754Z,1014.8
2017-07-31T03:29:49.957Z,1014.7
2017-07-31T03:30:49.165Z,1014.7
2017-07-31T03:31:48.880Z,1014.8
2017-07-31T03:32:48.080Z,1014.7
2017-07-31T03:33:47.281Z,1014.7
2017-07-31T03:34:46.981Z,1014.7
2017-07-31T03:35:46.450Z,1014.8
2017-07-31T03:36:45.521Z,1014.9
2017-07-31T03:37:45.227Z,1014.9
2017-07-31T03:38:44.439Z,1014.9
2017-07-31T03:39:44.017Z,1014.9
2017-07-31T03:40:14.292Z,1014.9
2017-07-31T03:40:44.791Z,1014.9
2017-07-31T03:41:15.179Z,1014.9
2017-07-31T03:41:45.690Z,1014.9
2017-07-31T03:42:16.197Z,1014.9
2017-07-31T03:43:41.473Z,1014.9
2017-07-31T03:44:40.427Z,1014.9
2017-07-31T03:45:40.042Z,1014.9
2017-07-31T03:46:39.243Z,1014.9
2017-07-31T03:47:38.585Z,1014.9
2017-07-31T03:48:37.928Z,1014.8
2017-07-31T03:49:37.504Z,1014.8
2017-07-31T03:50:37.069Z,1014.8
2017-07-31T03:51:36.162Z,1014.7
2017-07-31T03:52:06.660Z,1014.7
2017-07-31T03:52:36.937Z,1014.7
2017-07-31T03:53:07.323Z,1014.7
2017-07-31T03:53:37.584Z,1014.7
2017-07-31T03:54:08.092Z,1014.7
2017-07-31T03:54:38.484Z,1014.7
2017-07-31T03:55:08.863Z,1014.7
2017-07-31T03:56:33.220Z,1014.7
2017-07-31T03:57:32.417Z,1014.8
2017-07-31T03:58:31.622Z,1014.7
2017-07-31T03:59:31.312Z,1014.7
2017-07-31T04:00:30.399Z,1014.7
2017-07-31T04:01:30.097Z,1014.7
2017-07-31T04:02:29.278Z,1014.7
2017-07-31T04:03:28.484Z,1014.7
2017-07-31T04:04:28.180Z,1014.7
2017-07-31T04:05:27.377Z,1014.7
2017-07-31T04:06:26.570Z,1014.7
2017-07-31T04:07:26.263Z,1014.6
2017-07-31T04:08:25.452Z,1014.7
2017-07-31T04:09:24.807Z,1014.6
2017-07-31T04:10:24.500Z,1014.7
2017-07-31T04:11:23.685Z,1014.6
2017-07-31T04:12:22.882Z,1014.6
2017-07-31T04:13:22.472Z,1014.7
2017-07-31T04:14:21.673Z,1014.6
2017-07-31T04:15:20.870Z,1014.6
2017-07-31T04:16:20.566Z,1014.6
2017-07-31T04:17:19.670Z,1014.6
2017-07-31T04:18:19.250Z,1014.6
2017-07-31T04:19:18.447Z,1014.6
2017-07-31T04:20:18.020Z,1014.6
2017-07-31T04:21:17.097Z,1014.6
2017-07-31T04:22:16.802Z,1014.6
2017-07-31T04:23:15.881Z,1014.6
2017-07-31T04:24:15.569Z,1014.5
2017-07-31T04:25:14.776Z,1014.5
2017-07-31T04:26:14.251Z,1014.5
2017-07-31T04:27:13.239Z,1014.5
2017-07-31T04:28:12.821Z,1014.5
2017-07-31T04:29:11.997Z,1014.5
2017-07-31T04:30:11.691Z,1014.6
2017-07-31T04:31:11.163Z,1014.5
2017-07-31T04:32:10.353Z,1014.5
2017-07-31T04:33:09.551Z,1014.6
2017-07-31T04:34:09.250Z,1014.6
2017-07-31T04:34:39.744Z,1014.6
2017-07-31T04:35:10.022Z,1014.6
2017-07-31T04:35:40.530Z,1014.6
2017-07-31T04:37:07.298Z,1014.6
2017-07-31T04:38:06.369Z,1014.6
2017-07-31T04:40:05.344Z,1014.7
2017-07-31T04:41:04.548Z,1014.7
2017-07-31T04:42:03.750Z,1014.7
2017-07-31T04:43:03.329Z,1014.6
2017-07-31T04:44:02.404Z,1014.6
2017-07-31T04:45:02.101Z,1014.5
2017-07-31T04:46:01.562Z,1014.5
2017-07-31T04:47:00.637Z,1014.5
2017-07-31T04:48:00.093Z,1014.5
2017-07-31T04:48:59.290Z,1014.5
2017-07-31T04:50:58.257Z,1014.5
2017-07-31T04:51:57.449Z,1014.5
2017-07-31T04:52:57.024Z,1014.5
2017-07-31T04:53:56.228Z,1014.5
2017-07-31T04:54:55.424Z,1014.6
2017-07-31T04:55:55.009Z,1014.6
2017-07-31T04:56:54.199Z,1014.7
2017-07-31T04:57:53.531Z,1014.7
2017-07-31T04:58:52.875Z,1014.7
2017-07-31T04:59:52.451Z,1014.7
2017-07-31T05:01:50.912Z,1014.7
2017-07-31T05:02:50.484Z,1014.8
2017-07-31T05:03:49.847Z,1014.7
2017-07-31T05:04:49.299Z,1014.7
2017-07-31T05:05:48.367Z,1014.8
2017-07-31T05:06:48.060Z,1014.8
2017-07-31T05:07:47.260Z,1014.8
2017-07-31T05:08:46.450Z,1014.8
2017-07-31T05:09:46.154Z,1014.8
2017-07-31T05:11:44.731Z,1014.8
2017-07-31T05:12:43.817Z,1014.8
2017-07-31T05:13:43.401Z,1014.8
2017-07-31T05:15:41.991Z,1014.8
2017-07-31T05:16:41.181Z,1014.8
2017-07-31T05:17:40.789Z,1014.8
2017-07-31T05:18:40.008Z,1014.9
2017-07-31T05:19:39.575Z,1014.8
2017-07-31T05:20:39.043Z,1014.8
2017-07-31T05:21:38.238Z,1014.8
2017-07-31T05:22:37.704Z,1014.7
2017-07-31T05:23:36.885Z,1014.8
2017-07-31T05:24:36.464Z,1014.9
2017-07-31T05:25:35.662Z,1014.8
2017-07-31T05:26:34.860Z,1014.9
2017-07-31T05:27:34.069Z,1014.9
2017-07-31T05:28:33.785Z,1014.9
2017-07-31T05:29:32.862Z,1014.9
2017-07-31T05:30:32.559Z,1014.8
2017-07-31T05:31:31.659Z,1014.9
2017-07-31T05:32:30.857Z,1014.9
2017-07-31T05:33:30.566Z,1014.9
2017-07-31T05:34:29.755Z,1014.9
2017-07-31T05:35:28.958Z,1015
2017-07-31T05:36:28.652Z,1015
2017-07-31T05:37:27.724Z,1015
2017-07-31T05:38:27.431Z,1015
2017-07-31T05:39:26.630Z,1015
2017-07-31T05:40:25.712Z,1015
2017-07-31T05:40:56.232Z,1015
2017-07-31T05:41:26.607Z,1015.1
2017-07-31T05:41:57.007Z,1015.1
2017-07-31T05:42:27.500Z,1015.1
2017-07-31T05:42:57.893Z,1015.1
2017-07-31T05:43:28.395Z,1015.1
2017-07-31T05:43:58.793Z,1015.1
2017-07-31T05:44:29.189Z,1015.1
2017-07-31T05:44:59.580Z,1015.1
2017-07-31T05:46:21.832Z,1015.1
2017-07-31T05:47:21.534Z,1015.1
2017-07-31T05:48:20.715Z,1015.1
2017-07-31T05:49:20.311Z,1015.1
2017-07-31T05:50:19.501Z,1015.1
2017-07-31T05:51:18.567Z,1015.1
2017-07-31T05:52:18.178Z,1015.1
2017-07-31T05:53:17.741Z,1015.2
2017-07-31T05:54:16.830Z,1015.1
2017-07-31T05:54:47.338Z,1015.1
2017-07-31T05:55:17.753Z,1015.1
2017-07-31T05:56:15.820Z,1015.1
2017-07-31T05:57:14.906Z,1015.1
2017-07-31T05:58:14.093Z,1015.1
2017-07-31T05:59:13.556Z,1015.1
2017-07-31T06:00:13.037Z,1015.1
2017-07-31T06:01:12.233Z,1015.1
2017-07-31T06:02:11.809Z,1015.1
2017-07-31T06:03:10.888Z,1015.1
2017-07-31T06:04:10.458Z,1015.1
2017-07-31T06:05:10.043Z,1015.1
2017-07-31T06:06:09.228Z,1015.2
2017-07-31T06:07:08.311Z,1015.1
2017-07-31T06:08:07.891Z,1015.1
2017-07-31T06:09:07.359Z,1015.2
2017-07-31T06:10:06.555Z,1015.2
2017-07-31T06:11:06.136Z,1015.1
2017-07-31T06:12:05.341Z,1015.1
2017-07-31T06:12:35.840Z,1015.1
2017-07-31T06:13:06.117Z,1015.1
2017-07-31T06:13:36.514Z,1015.1
2017-07-31T06:14:06.907Z,1015.1
2017-07-31T06:14:37.157Z,1015.1
2017-07-31T06:16:02.543Z,1015.2
2017-07-31T06:17:01.908Z,1015.2
2017-07-31T06:21:59.181Z,1015.2
2017-07-31T06:22:58.256Z,1015.3
2017-07-31T06:23:57.714Z,1015.3
2017-07-31T06:24:56.918Z,1015.3
2017-07-31T06:25:56.623Z,1015.3
2017-07-31T06:26:55.594Z,1015.3
2017-07-31T06:27:55.188Z,1015.3
2017-07-31T06:28:54.396Z,1015.3
2017-07-31T06:29:53.973Z,1015.3
2017-07-31T06:30:53.049Z,1015.3
2017-07-31T06:31:52.629Z,1015.3
2017-07-31T06:32:52.209Z,1015.4
2017-07-31T06:33:51.401Z,1015.4
2017-07-31T06:35:49.990Z,1015.4
2017-07-31T06:36:49.691Z,1015.4
2017-07-31T06:37:49.053Z,1015.4
2017-07-31T06:39:47.522Z,1015.5
2017-07-31T06:40:46.878Z,1015.4
2017-07-31T06:41:46.576Z,1015.5
2017-07-31T06:42:45.762Z,1015.4
2017-07-31T06:43:44.953Z,1015.4
2017-07-31T06:44:44.529Z,1015.5
2017-07-31T06:45:43.987Z,1015.5
2017-07-31T06:46:43.442Z,1015.5
2017-07-31T06:47:42.403Z,1015.5
2017-07-31T06:48:41.982Z,1015.5
2017-07-31T06:49:41.567Z,1015.5
2017-07-31T06:50:11.957Z,1015.5
2017-07-31T06:50:42.473Z,1015.6
2017-07-31T06:51:12.979Z,1015.6
2017-07-31T06:51:43.367Z,1015.6
2017-07-31T06:52:39.426Z,1015.5
2017-07-31T06:53:38.620Z,1015.5
2017-07-31T06:54:38.078Z,1015.5
2017-07-31T06:56:37.049Z,1015.5
2017-07-31T06:57:36.516Z,1015.6
2017-07-31T06:58:35.588Z,1015.5
2017-07-31T06:59:35.299Z,1015.5
2017-07-31T07:00:34.493Z,1015.5
2017-07-31T07:01:33.703Z,1015.5
2017-07-31T07:02:33.398Z,1015.5
2017-07-31T07:03:32.495Z,1015.5
2017-07-31T07:04:32.070Z,1015.5
2017-07-31T07:05:31.162Z,1015.5
2017-07-31T07:06:30.750Z,1015.5
2017-07-31T07:07:30.337Z,1015.5
2017-07-31T07:08:29.796Z,1015.5
2017-07-31T07:09:28.890Z,1015.5
2017-07-31T07:10:28.102Z,1015.5
2017-07-31T07:11:27.810Z,1015.5
2017-07-31T07:12:27.020Z,1015.5
2017-07-31T07:13:26.720Z,1015.5
2017-07-31T07:14:25.917Z,1015.5
2017-07-31T07:15:25.500Z,1015.5
2017-07-31T07:16:24.458Z,1015.5
2017-07-31T07:17:24.153Z,1015.5
2017-07-31T07:18:23.365Z,1015.5
2017-07-31T07:19:23.042Z,1015.5
2017-07-31T07:20:22.233Z,1015.5
2017-07-31T07:20:52.730Z,1015.5
2017-07-31T07:21:23.117Z,1015.6
2017-07-31T07:21:53.621Z,1015.6
2017-07-31T07:22:24.009Z,1015.5
2017-07-31T07:22:54.528Z,1015.5
2017-07-31T07:24:19.891Z,1015.6
2017-07-31T07:25:19.085Z,1015.6
2017-07-31T07:26:18.773Z,1015.6
2017-07-31T07:27:17.990Z,1015.6
2017-07-31T07:28:17.564Z,1015.6
2017-07-31T07:29:16.769Z,1015.6
2017-07-31T07:30:15.964Z,1015.6
2017-07-31T07:31:15.666Z,1015.7
2017-07-31T07:32:14.861Z,1015.6
2017-07-31T07:33:14.578Z,1015.6
2017-07-31T07:34:13.645Z,1015.7
2017-07-31T07:35:13.350Z,1015.6
2017-07-31T07:36:12.569Z,1015.6
2017-07-31T07:37:12.150Z,1015.7
2017-07-31T07:38:11.355Z,1015.6
2017-07-31T07:39:10.829Z,1015.6
2017-07-31T07:40:10.042Z,1015.6
2017-07-31T07:41:09.734Z,1015.6
2017-07-31T07:42:08.819Z,1015.6
2017-07-31T07:43:08.531Z,1015.6
2017-07-31T07:44:07.740Z,1015.6
2017-07-31T07:45:07.448Z,1015.6
2017-07-31T07:46:06.643Z,1015.6
2017-07-31T07:47:05.834Z,1015.6
2017-07-31T07:48:05.538Z,1015.7
2017-07-31T07:49:04.737Z,1015.6
2017-07-31T07:50:04.438Z,1015.6
2017-07-31T07:51:03.892Z,1015.6
2017-07-31T07:52:03.354Z,1015.6
2017-07-31T07:52:33.749Z,1015.6
2017-07-31T07:53:04.248Z,1015.6
2017-07-31T07:54:01.917Z,1015.7
2017-07-31T07:55:01.501Z,1015.6
2017-07-31T07:56:00.576Z,1015.6
2017-07-31T07:57:00.286Z,1015.6
2017-07-31T07:57:59.525Z,1015.6
2017-07-31T07:58:59.218Z,1015.6
2017-07-31T07:59:58.410Z,1015.6
2017-07-31T08:00:58.118Z,1015.6
2017-07-31T08:01:57.308Z,1015.7
2017-07-31T08:02:56.520Z,1015.7
2017-07-31T08:03:56.100Z,1015.7
2017-07-31T08:04:55.810Z,1015.7
2017-07-31T08:05:55.005Z,1015.7
2017-07-31T08:06:54.602Z,1015.7
2017-07-31T08:07:53.798Z,1015.8
2017-07-31T08:08:53.252Z,1015.8
2017-07-31T08:09:52.841Z,1015.8
2017-07-31T08:10:51.912Z,1015.8
2017-07-31T08:11:51.767Z,1015.8
2017-07-31T08:12:51.017Z,1015.8
2017-07-31T08:13:21.524Z,1015.8
2017-07-31T08:13:51.790Z,1015.9
2017-07-31T08:14:22.168Z,1015.9
2017-07-31T08:14:52.463Z,1015.9
2017-07-31T08:15:22.852Z,1015.9
2017-07-31T08:16:48.610Z,1015.9
2017-07-31T08:17:48.217Z,1015.9
2017-07-31T08:18:47.406Z,1015.9
2017-07-31T08:19:47.109Z,1015.9
2017-07-31T08:20:46.294Z,1015.9
2017-07-31T08:22:45.246Z,1016
2017-07-31T08:23:44.822Z,1016
2017-07-31T08:24:44.007Z,1015.9
2017-07-31T08:25:43.578Z,1015.9
2017-07-31T08:26:43.145Z,1015.9
2017-07-31T08:27:42.330Z,1016
2017-07-31T08:28:41.915Z,1015.9
2017-07-31T08:29:41.494Z,1015.9
2017-07-31T08:30:40.974Z,1015.9
2017-07-31T08:31:40.437Z,1015.9
2017-07-31T08:32:39.641Z,1015.9
2017-07-31T08:33:39.217Z,1015.9
2017-07-31T08:34:38.808Z,1015.9
2017-07-31T08:35:38.005Z,1015.9
2017-07-31T08:36:37.695Z,1015.9
2017-07-31T08:37:36.777Z,1015.9
2017-07-31T08:38:36.253Z,1016
2017-07-31T08:39:35.839Z,1016
2017-07-31T08:40:35.528Z,1016
2017-07-31T08:41:34.729Z,1016
2017-07-31T08:42:34.429Z,1016
2017-07-31T08:43:33.641Z,1016
2017-07-31T08:44:33.343Z,1016
2017-07-31T08:45:32.427Z,1016
2017-07-31T08:46:02.939Z,1016
2017-07-31T08:46:33.436Z,1016
2017-07-31T08:47:31.506Z,1016
2017-07-31T08:48:30.856Z,1016
2017-07-31T08:49:30.431Z,1016
2017-07-31T08:50:30.009Z,1016
2017-07-31T08:51:29.481Z,1016
2017-07-31T08:52:28.946Z,1016.1
2017-07-31T08:53:28.410Z,1016.1
2017-07-31T08:54:27.864Z,1016.1
2017-07-31T08:55:26.937Z,1016.2
2017-07-31T08:56:26.801Z,1016.1
2017-07-31T08:57:25.999Z,1016.1
2017-07-31T08:58:25.451Z,1016.2
2017-07-31T08:59:25.021Z,1016.1
2017-07-31T09:00:24.738Z,1016.1
2017-07-31T09:01:23.834Z,1016.2
2017-07-31T09:01:54.219Z,1016.2
2017-07-31T09:03:23.114Z,1016.2
2017-07-31T09:04:22.188Z,1016.2
2017-07-31T09:05:21.921Z,1016.2
2017-07-31T09:06:21.492Z,1016.2
2017-07-31T09:08:20.092Z,1016.2
2017-07-31T09:09:19.558Z,1016.2
2017-07-31T09:10:19.256Z,1016.2
2017-07-31T09:11:18.844Z,1016.2
2017-07-31T09:12:18.043Z,1016.3
2017-07-31T09:13:17.623Z,1016.3
2017-07-31T09:14:17.199Z,1016.3
2017-07-31T09:15:16.408Z,1016.3
2017-07-31T09:16:15.981Z,1016.2
2017-07-31T09:17:15.187Z,1016.2
2017-07-31T09:18:14.872Z,1016.2
2017-07-31T09:19:14.449Z,1016.2
2017-07-31T09:20:13.645Z,1016.3
2017-07-31T09:21:13.358Z,1016.2
2017-07-31T09:22:12.818Z,1016.3
2017-07-31T09:23:12.018Z,1016.3
2017-07-31T09:24:11.717Z,1016.3
2017-07-31T09:24:41.973Z,1016.3
2017-07-31T09:25:12.630Z,1016.3
2017-07-31T09:26:10.701Z,1016.3
2017-07-31T09:27:10.272Z,1016.3
2017-07-31T09:28:09.466Z,1016.3
2017-07-31T09:29:09.162Z,1016.3
2017-07-31T09:30:08.624Z,1016.3
2017-07-31T09:31:07.825Z,1016.3
2017-07-31T09:32:07.401Z,1016.3
2017-07-31T09:33:06.988Z,1016.3
2017-07-31T09:34:06.182Z,1016.3
2017-07-31T09:35:05.761Z,1016.3
2017-07-31T09:36:05.382Z,1016.3
2017-07-31T09:37:04.962Z,1016.4
2017-07-31T09:38:04.150Z,1016.4
2017-07-31T09:39:03.873Z,1016.4
2017-07-31T09:40:03.070Z,1016.4
2017-07-31T09:41:02.530Z,1016.4
2017-07-31T09:42:02.231Z,1016.3
2017-07-31T09:43:01.712Z,1016.4
2017-07-31T09:44:01.288Z,1016.3
2017-07-31T09:45:00.482Z,1016.4
2017-07-31T09:45:59.956Z,1016.4
2017-07-31T09:46:59.648Z,1016.4
2017-07-31T09:47:59.135Z,1016.3
2017-07-31T09:48:58.828Z,1016.3
2017-07-31T09:49:58.027Z,1016.3
2017-07-31T09:50:57.602Z,1016.4
2017-07-31T09:51:57.296Z,1016.4
2017-07-31T09:52:56.377Z,1016.4
2017-07-31T09:53:26.768Z,1016.4
2017-07-31T09:53:57.282Z,1016.4
2017-07-31T09:54:27.783Z,1016.4
2017-07-31T09:54:58.086Z,1016.5
2017-07-31T09:55:28.476Z,1016.5
2017-07-31T09:55:58.981Z,1016.4
2017-07-31T09:56:29.483Z,1016.4
2017-07-31T09:57:54.231Z,1016.4
2017-07-31T09:58:53.427Z,1016.4
2017-07-31T09:59:53.005Z,1016.4
2017-07-31T10:00:52.699Z,1016.5
2017-07-31T10:01:51.768Z,1016.4
2017-07-31T10:02:51.335Z,1016.4
2017-07-31T10:03:51.039Z,1016.4
2017-07-31T10:04:50.224Z,1016.4
2017-07-31T10:05:49.922Z,1016.4
2017-07-31T10:06:49.508Z,1016.4
2017-07-31T10:07:20.166Z,1016.4
2017-07-31T10:07:50.563Z,1016.5
2017-07-31T10:08:48.392Z,1016.5
2017-07-31T10:09:47.863Z,1016.5
2017-07-31T10:10:47.429Z,1016.5
2017-07-31T10:11:47.015Z,1016.4
2017-07-31T10:12:46.215Z,1016.4
2017-07-31T10:13:45.674Z,1016.4
2017-07-31T10:14:45.257Z,1016.4
2017-07-31T10:15:44.721Z,1016.4
2017-07-31T10:16:44.316Z,1016.4
2017-07-31T10:17:43.885Z,1016.3
2017-07-31T10:18:43.472Z,1016.3
2017-07-31T10:19:42.660Z,1016.3
2017-07-31T10:20:42.364Z,1016.3
2017-07-31T10:21:42.076Z,1016.3
2017-07-31T10:22:41.158Z,1016.3
2017-07-31T10:23:40.862Z,1016.3
2017-07-31T10:24:40.450Z,1016.3
2017-07-31T10:25:39.795Z,1016.3
2017-07-31T10:26:39.505Z,1016.3
2017-07-31T10:27:10.011Z,1016.3
2017-07-31T10:28:38.656Z,1016.4
2017-07-31T10:29:37.855Z,1016.4
2017-07-31T10:30:37.206Z,1016.4
2017-07-31T10:32:36.675Z,1016.3
2017-07-31T10:33:35.751Z,1016.3
2017-07-31T10:34:35.441Z,1016.3
2017-07-31T10:35:35.144Z,1016.4
2017-07-31T10:36:34.341Z,1016.4
2017-07-31T10:37:33.931Z,1016.4
2017-07-31T10:38:33.649Z,1016.5
2017-07-31T10:39:33.240Z,1016.5
2017-07-31T10:41:31.847Z,1016.4
2017-07-31T10:42:31.560Z,1016.4
2017-07-31T10:43:02.082Z,1016.4
2017-07-31T10:43:32.588Z,1016.3
2017-07-31T10:44:30.550Z,1016.2
2017-07-31T10:45:30.254Z,1016.2
2017-07-31T10:46:29.460Z,1016.3
2017-07-31T10:47:29.032Z,1016.3
2017-07-31T10:48:28.737Z,1016.3
2017-07-31T10:49:27.963Z,1016.4
2017-07-31T10:50:27.415Z,1016.4
2017-07-31T10:55:25.058Z,1016.2
2017-07-31T10:56:24.637Z,1016.2
2017-07-31T10:57:24.473Z,1016.2
2017-07-31T10:58:23.819Z,1016.1
2017-07-31T10:59:23.522Z,1016.2
2017-07-31T11:00:22.608Z,1016.1
2017-07-31T11:01:22.581Z,1016.2
2017-07-31T11:02:21.781Z,1016.3
2017-07-31T11:03:21.365Z,1016.3
2017-07-31T11:04:21.075Z,1016.3
2017-07-31T11:04:51.576Z,1016.3
2017-07-31T11:06:19.839Z,1016.3
2017-07-31T11:07:19.430Z,1016.3
2017-07-31T11:08:19.134Z,1016.3
2017-07-31T11:09:18.345Z,1016.3
2017-07-31T11:10:18.049Z,1016.2
2017-07-31T11:11:17.748Z,1016.2
2017-07-31T11:12:16.946Z,1016.2
2017-07-31T11:13:16.514Z,1016.2
2017-07-31T11:14:16.261Z,1016.2
2017-07-31T11:15:15.855Z,1016.2
2017-07-31T11:16:15.053Z,1016.2
2017-07-31T11:17:14.641Z,1016.2
2017-07-31T11:18:14.345Z,1016.2
2017-07-31T11:19:13.685Z,1016.3
2017-07-31T11:20:13.280Z,1016.3
2017-07-31T11:21:12.973Z,1016.3
2017-07-31T11:22:12.682Z,1016.3
2017-07-31T11:23:11.882Z,1016.2
2017-07-31T11:24:11.579Z,1016.3
2017-07-31T11:25:11.044Z,1016.2
2017-07-31T11:26:10.625Z,1016.2
2017-07-31T11:27:10.219Z,1016.2
2017-07-31T11:28:09.799Z,1016.2
2017-07-31T11:29:09.389Z,1016.2
2017-07-31T11:30:08.959Z,1016.1
2017-07-31T11:31:08.148Z,1016.1
2017-07-31T11:32:07.601Z,1016.1
2017-07-31T11:33:07.302Z,1016
2017-07-31T11:34:06.874Z,1016.1
2017-07-31T11:34:37.144Z,1016.1
2017-07-31T11:35:07.528Z,1016
2017-07-31T11:35:37.922Z,1016
2017-07-31T11:36:08.428Z,1016.1
2017-07-31T11:36:38.809Z,1016.1
2017-07-31T11:37:09.199Z,1016.1
2017-07-31T11:37:39.585Z,1016.1
2017-07-31T11:38:09.860Z,1016.1
2017-07-31T11:38:40.235Z,1016.1
2017-07-31T11:40:03.970Z,1016.1
2017-07-31T11:41:03.552Z,1016.1
2017-07-31T11:42:03.249Z,1016.2
2017-07-31T11:43:02.832Z,1016.2
2017-07-31T11:44:02.522Z,1016.1
2017-07-31T11:45:01.727Z,1016.1
2017-07-31T11:46:01.430Z,1016.1
2017-07-31T11:47:01.018Z,1016.2
2017-07-31T11:48:00.516Z,1016.2
2017-07-31T11:48:31.070Z,1016.2
2017-07-31T11:49:01.468Z,1016.2
2017-07-31T11:49:31.976Z,1016.2
2017-07-31T11:50:59.357Z,1016.2
2017-07-31T11:51:58.562Z,1016.2
2017-07-31T11:52:58.262Z,1016.1
2017-07-31T11:53:57.967Z,1016.1
2017-07-31T11:54:57.160Z,1016.1
2017-07-31T11:55:56.740Z,1016.1
2017-07-31T11:56:56.711Z,1016.1
2017-07-31T11:57:56.049Z,1016.1
2017-07-31T11:58:55.754Z,1016
2017-07-31T12:00:54.722Z,1016
2017-07-31T12:01:54.290Z,1016
2017-07-31T12:02:53.984Z,1016
2017-07-31T12:03:53.586Z,1016
2017-07-31T12:04:52.789Z,1015.9
2017-07-31T12:05:52.493Z,1015.9
2017-07-31T12:06:52.072Z,1015.9
2017-07-31T12:07:51.654Z,1015.9
2017-07-31T12:08:22.070Z,1015.9